sensor_id;sensor_type;location;lat;lon;timestamp;P1;durP1;ratioP1;P2;durP2;ratioP2
30080;SDS011;16902;50.816;12.828;2023-05-29T00:04:08;6.93;;;6.60;;
30080;SDS011;16902;50.816;12.828;2023-05-29T00:09:10;6.75;;;6.35;;
30080;SDS011;16902;50.816;12.828;2023-05-29T00:14:11;6.93;;;6.53;;
30080;SDS011;16902;50.816;12.828;2023-05-29T00:19:15;6.72;;;6.43;;
30080;SDS011;16902;50.816;12.828;2023-05-29T00:24:23;8.57;;;6.90;;
30080;SDS011;16902;50.816;12.828;2023-05-29T00:29:25;6.13;;;5.90;;
30080;SDS011;16902;50.816;12.828;2023-05-29T00:34:28;6.38;;;6.07;;
30080;SDS011;16902;50.816;12.828;2023-05-29T00:39:30;6.47;;;6.18;;
30080;SDS011;16902;50.816;12.828;2023-05-29T00:44:32;6.60;;;6.20;;
30080;SDS011;16902;50.816;12.828;2023-05-29T00:49:34;6.85;;;6.45;;
30080;SDS011;16902;50.816;12.828;2023-05-29T00:54:37;6.05;;;5.75;;
30080;SDS011;16902;50.816;12.828;2023-05-29T00:59:39;7.40;;;6.78;;
30080;SDS011;16902;50.816;12.828;2023-05-29T01:04:44;6.93;;;6.38;;
30080;SDS011;16902;50.816;12.828;2023-05-29T01:09:46;6.50;;;6.20;;
30080;SDS011;16902;50.816;12.828;2023-05-29T01:25:46;6.80;;;6.40;;
30080;SDS011;16902;50.816;12.828;2023-05-29T01:31:07;5.55;;;5.35;;
30080;SDS011;16902;50.816;12.828;2023-05-29T01:36:10;5.65;;;5.40;;
30080;SDS011;16902;50.816;12.828;2023-05-29T01:41:12;5.78;;;5.47;;
30080;SDS011;16902;50.816;12.828;2023-05-29T01:46:15;5.60;;;5.30;;
30080;SDS011;16902;50.816;12.828;2023-05-29T01:51:19;6.53;;;6.22;;
30080;SDS011;16902;50.816;12.828;2023-05-29T01:56:21;6.10;;;5.80;;
30080;SDS011;16902;50.816;12.828;2023-05-29T02:01:24;5.80;;;5.50;;
30080;SDS011;16902;50.816;12.828;2023-05-29T02:06:26;5.85;;;5.55;;
30080;SDS011;16902;50.816;12.828;2023-05-29T02:11:28;5.47;;;5.25;;
30080;SDS011;16902;50.816;12.828;2023-05-29T02:16:30;5.63;;;5.43;;
30080;SDS011;16902;50.816;12.828;2023-05-29T02:21:37;6.40;;;5.85;;
30080;SDS011;16902;50.816;12.828;2023-05-29T02:26:40;5.53;;;5.22;;
30080;SDS011;16902;50.816;12.828;2023-05-29T02:31:42;6.07;;;5.63;;
30080;SDS011;16902;50.816;12.828;2023-05-29T02:36:44;6.50;;;6.10;;
30080;SDS011;16902;50.816;12.828;2023-05-29T02:41:45;6.32;;;5.75;;
30080;SDS011;16902;50.816;12.828;2023-05-29T02:46:47;6.20;;;5.90;;
30080;SDS011;16902;50.816;12.828;2023-05-29T02:51:53;5.60;;;5.32;;
30080;SDS011;16902;50.816;12.828;2023-05-29T02:56:58;5.50;;;5.20;;
30080;SDS011;16902;50.816;12.828;2023-05-29T03:01:59;5.15;;;4.95;;
30080;SDS011;16902;50.816;12.828;2023-05-29T03:07:03;5.13;;;4.93;;
30080;SDS011;16902;50.816;12.828;2023-05-29T03:12:05;5.72;;;5.43;;
30080;SDS011;16902;50.816;12.828;2023-05-29T03:17:07;5.82;;;5.43;;
30080;SDS011;16902;50.816;12.828;2023-05-29T03:22:09;6.15;;;5.75;;
30080;SDS011;16902;50.816;12.828;2023-05-29T03:27:12;5.90;;;5.60;;
30080;SDS011;16902;50.816;12.828;2023-05-29T03:32:15;5.55;;;5.25;;
30080;SDS011;16902;50.816;12.828;2023-05-29T03:37:17;5.60;;;5.30;;
30080;SDS011;16902;50.816;12.828;2023-05-29T03:42:19;6.10;;;5.80;;
30080;SDS011;16902;50.816;12.828;2023-05-29T03:47:23;5.55;;;5.25;;
30080;SDS011;16902;50.816;12.828;2023-05-29T03:52:27;5.45;;;5.15;;
30080;SDS011;16902;50.816;12.828;2023-05-29T03:57:30;5.25;;;5.05;;
30080;SDS011;16902;50.816;12.828;2023-05-29T04:02:32;5.88;;;5.43;;
30080;SDS011;16902;50.816;12.828;2023-05-29T04:07:34;4.85;;;4.60;;
30080;SDS011;16902;50.816;12.828;2023-05-29T04:12:40;5.10;;;4.80;;
30080;SDS011;16902;50.816;12.828;2023-05-29T04:17:41;5.68;;;5.15;;
30080;SDS011;16902;50.816;12.828;2023-05-29T04:22:43;5.38;;;4.97;;
30080;SDS011;16902;50.816;12.828;2023-05-29T04:27:45;5.93;;;5.53;;
30080;SDS011;16902;50.816;12.828;2023-05-29T04:32:52;5.20;;;5.00;;
30080;SDS011;16902;50.816;12.828;2023-05-29T04:37:57;5.38;;;5.13;;
30080;SDS011;16902;50.816;12.828;2023-05-29T04:43:03;5.25;;;4.95;;
30080;SDS011;16902;50.816;12.828;2023-05-29T04:48:26;6.60;;;5.85;;
30080;SDS011;16902;50.816;12.828;2023-05-29T04:53:28;6.30;;;5.95;;
30080;SDS011;16902;50.816;12.828;2023-05-29T04:58:32;6.32;;;5.82;;
30080;SDS011;16902;50.816;12.828;2023-05-29T05:03:33;6.07;;;5.78;;
30080;SDS011;16902;50.816;12.828;2023-05-29T05:08:36;5.72;;;5.43;;
30080;SDS011;16902;50.816;12.828;2023-05-29T05:13:38;6.18;;;5.78;;
30080;SDS011;16902;50.816;12.828;2023-05-29T05:18:40;5.75;;;5.45;;
30080;SDS011;16902;50.816;12.828;2023-05-29T05:23:42;6.57;;;6.18;;
30080;SDS011;16902;50.816;12.828;2023-05-29T05:28:59;6.50;;;6.10;;
30080;SDS011;16902;50.816;12.828;2023-05-29T05:34:03;6.90;;;6.50;;
30080;SDS011;16902;50.816;12.828;2023-05-29T05:39:05;7.32;;;6.53;;
30080;SDS011;16902;50.816;12.828;2023-05-29T05:44:07;6.85;;;6.38;;
30080;SDS011;16902;50.816;12.828;2023-05-29T05:49:17;6.60;;;6.30;;
30080;SDS011;16902;50.816;12.828;2023-05-29T05:54:19;8.27;;;7.85;;
30080;SDS011;16902;50.816;12.828;2023-05-29T05:59:22;8.65;;;8.18;;
30080;SDS011;16902;50.816;12.828;2023-05-29T06:04:26;9.10;;;8.70;;
30080;SDS011;16902;50.816;12.828;2023-05-29T06:09:27;9.02;;;8.70;;
30080;SDS011;16902;50.816;12.828;2023-05-29T06:14:30;9.57;;;9.07;;
30080;SDS011;16902;50.816;12.828;2023-05-29T06:19:32;9.35;;;8.95;;
30080;SDS011;16902;50.816;12.828;2023-05-29T06:24:35;10.40;;;9.80;;
30080;SDS011;16902;50.816;12.828;2023-05-29T06:29:37;10.50;;;9.80;;
30080;SDS011;16902;50.816;12.828;2023-05-29T06:34:40;10.05;;;9.55;;
30080;SDS011;16902;50.816;12.828;2023-05-29T06:39:45;10.38;;;9.88;;
30080;SDS011;16902;50.816;12.828;2023-05-29T06:44:47;10.88;;;10.30;;
30080;SDS011;16902;50.816;12.828;2023-05-29T06:49:49;9.98;;;9.50;;
30080;SDS011;16902;50.816;12.828;2023-05-29T06:54:51;10.02;;;9.52;;
30080;SDS011;16902;50.816;12.828;2023-05-29T06:59:54;9.95;;;9.45;;
30080;SDS011;16902;50.816;12.828;2023-05-29T07:04:57;10.40;;;9.98;;
30080;SDS011;16902;50.816;12.828;2023-05-29T07:10:00;11.95;;;11.35;;
30080;SDS011;16902;50.816;12.828;2023-05-29T07:15:03;10.80;;;10.40;;
30080;SDS011;16902;50.816;12.828;2023-05-29T07:20:05;12.43;;;11.75;;
30080;SDS011;16902;50.816;12.828;2023-05-29T07:25:11;12.20;;;11.65;;
30080;SDS011;16902;50.816;12.828;2023-05-29T07:30:13;12.98;;;12.30;;
30080;SDS011;16902;50.816;12.828;2023-05-29T07:35:17;12.38;;;11.88;;
30080;SDS011;16902;50.816;12.828;2023-05-29T07:40:18;12.70;;;12.00;;
30080;SDS011;16902;50.816;12.828;2023-05-29T07:45:29;12.60;;;12.00;;
30080;SDS011;16902;50.816;12.828;2023-05-29T07:50:32;12.43;;;11.93;;
30080;SDS011;16902;50.816;12.828;2023-05-29T07:55:35;12.70;;;12.20;;
30080;SDS011;16902;50.816;12.828;2023-05-29T08:00:37;12.50;;;12.00;;
30080;SDS011;16902;50.816;12.828;2023-05-29T08:05:41;13.07;;;12.48;;
30080;SDS011;16902;50.816;12.828;2023-05-29T08:10:46;13.30;;;12.70;;
30080;SDS011;16902;50.816;12.828;2023-05-29T08:15:48;12.43;;;11.93;;
30080;SDS011;16902;50.816;12.828;2023-05-29T08:20:49;13.63;;;13.02;;
30080;SDS011;16902;50.816;12.828;2023-05-29T08:25:52;12.88;;;12.27;;
30080;SDS011;16902;50.816;12.828;2023-05-29T08:30:53;12.93;;;12.32;;
30080;SDS011;16902;50.816;12.828;2023-05-29T08:35:59;12.73;;;12.23;;
30080;SDS011;16902;50.816;12.828;2023-05-29T08:41:01;13.20;;;12.70;;
30080;SDS011;16902;50.816;12.828;2023-05-29T08:46:03;14.20;;;13.60;;
30080;SDS011;16902;50.816;12.828;2023-05-29T08:51:06;13.40;;;12.90;;
30080;SDS011;16902;50.816;12.828;2023-05-29T08:56:11;13.05;;;12.45;;
30080;SDS011;16902;50.816;12.828;2023-05-29T09:01:30;12.85;;;12.35;;
30080;SDS011;16902;50.816;12.828;2023-05-29T09:06:32;12.98;;;12.43;;
30080;SDS011;16902;50.816;12.828;2023-05-29T09:11:35;13.38;;;12.77;;
30080;SDS011;16902;50.816;12.828;2023-05-29T09:16:41;13.48;;;12.80;;
30080;SDS011;16902;50.816;12.828;2023-05-29T09:21:43;13.27;;;12.77;;
30080;SDS011;16902;50.816;12.828;2023-05-29T09:26:49;13.27;;;12.77;;
30080;SDS011;16902;50.816;12.828;2023-05-29T09:31:51;13.55;;;12.95;;
30080;SDS011;16902;50.816;12.828;2023-05-29T09:36:53;13.90;;;13.20;;
30080;SDS011;16902;50.816;12.828;2023-05-29T09:42:04;13.30;;;12.80;;
30080;SDS011;16902;50.816;12.828;2023-05-29T09:47:06;13.45;;;12.85;;
30080;SDS011;16902;50.816;12.828;2023-05-29T09:52:12;13.65;;;13.13;;
30080;SDS011;16902;50.816;12.828;2023-05-29T09:57:17;13.07;;;12.57;;
30080;SDS011;16902;50.816;12.828;2023-05-29T10:02:19;13.32;;;12.73;;
30080;SDS011;16902;50.816;12.828;2023-05-29T10:07:28;13.43;;;12.68;;
30080;SDS011;16902;50.816;12.828;2023-05-29T10:12:37;13.32;;;12.77;;
30080;SDS011;16902;50.816;12.828;2023-05-29T10:17:50;13.27;;;12.68;;
30080;SDS011;16902;50.816;12.828;2023-05-29T10:23:01;13.85;;;13.25;;
30080;SDS011;16902;50.816;12.828;2023-05-29T10:28:04;13.38;;;12.77;;
30080;SDS011;16902;50.816;12.828;2023-05-29T10:38:12;13.32;;;12.73;;
30080;SDS011;16902;50.816;12.828;2023-05-29T10:43:32;13.10;;;12.50;;
30080;SDS011;16902;50.816;12.828;2023-05-29T10:48:35;13.57;;;12.98;;
30080;SDS011;16902;50.816;12.828;2023-05-29T10:53:37;13.52;;;13.02;;
30080;SDS011;16902;50.816;12.828;2023-05-29T10:58:42;13.50;;;13.00;;
30080;SDS011;16902;50.816;12.828;2023-05-29T11:03:44;14.00;;;13.40;;
30080;SDS011;16902;50.816;12.828;2023-05-29T11:13:51;13.73;;;13.13;;
30080;SDS011;16902;50.816;12.828;2023-05-29T11:18:55;12.88;;;12.38;;
30080;SDS011;16902;50.816;12.828;2023-05-29T11:24:02;13.40;;;12.90;;
30080;SDS011;16902;50.816;12.828;2023-05-29T11:29:08;12.70;;;12.20;;
30080;SDS011;16902;50.816;12.828;2023-05-29T11:34:14;12.90;;;12.40;;
30080;SDS011;16902;50.816;12.828;2023-05-29T11:39:16;12.80;;;12.30;;
30080;SDS011;16902;50.816;12.828;2023-05-29T11:44:18;12.68;;;12.18;;
30080;SDS011;16902;50.816;12.828;2023-05-29T11:49:30;12.50;;;12.00;;
30080;SDS011;16902;50.816;12.828;2023-05-29T11:54:34;13.15;;;12.65;;
30080;SDS011;16902;50.816;12.828;2023-05-29T11:59:36;13.68;;;13.18;;
30080;SDS011;16902;50.816;12.828;2023-05-29T12:04:38;13.07;;;12.57;;
30080;SDS011;16902;50.816;12.828;2023-05-29T12:09:39;13.10;;;12.60;;
30080;SDS011;16902;50.816;12.828;2023-05-29T12:14:41;12.85;;;12.35;;
30080;SDS011;16902;50.816;12.828;2023-05-29T12:19:43;13.05;;;12.50;;
30080;SDS011;16902;50.816;12.828;2023-05-29T12:24:44;12.68;;;12.18;;
30080;SDS011;16902;50.816;12.828;2023-05-29T12:29:46;12.85;;;12.35;;
30080;SDS011;16902;50.816;12.828;2023-05-29T12:34:49;12.00;;;11.60;;
30080;SDS011;16902;50.816;12.828;2023-05-29T12:45:40;12.57;;;12.07;;
30080;SDS011;16902;50.816;12.828;2023-05-29T12:50:42;13.02;;;12.52;;
30080;SDS011;16902;50.816;12.828;2023-05-29T12:55:44;12.35;;;11.85;;
30080;SDS011;16902;50.816;12.828;2023-05-29T13:00:46;12.55;;;12.05;;
30080;SDS011;16902;50.816;12.828;2023-05-29T13:05:51;12.80;;;12.30;;
30080;SDS011;16902;50.816;12.828;2023-05-29T13:10:54;12.88;;;12.38;;
30080;SDS011;16902;50.816;12.828;2023-05-29T13:15:56;12.82;;;12.32;;
30080;SDS011;16902;50.816;12.828;2023-05-29T13:20:59;12.80;;;12.30;;
30080;SDS011;16902;50.816;12.828;2023-05-29T13:26:01;12.70;;;12.20;;
30080;SDS011;16902;50.816;12.828;2023-05-29T13:31:03;12.60;;;12.10;;
30080;SDS011;16902;50.816;12.828;2023-05-29T13:36:05;13.25;;;12.70;;
30080;SDS011;16902;50.816;12.828;2023-05-29T13:41:07;13.60;;;13.07;;
30080;SDS011;16902;50.816;12.828;2023-05-29T13:46:09;13.10;;;12.60;;
30080;SDS011;16902;50.816;12.828;2023-05-29T13:51:11;13.23;;;12.63;;
30080;SDS011;16902;50.816;12.828;2023-05-29T13:56:13;12.88;;;12.38;;
30080;SDS011;16902;50.816;12.828;2023-05-29T14:01:15;12.43;;;11.93;;
30080;SDS011;16902;50.816;12.828;2023-05-29T14:06:20;12.63;;;12.13;;
30080;SDS011;16902;50.816;12.828;2023-05-29T14:11:21;12.60;;;12.10;;
30080;SDS011;16902;50.816;12.828;2023-05-29T14:16:23;12.70;;;12.20;;
30080;SDS011;16902;50.816;12.828;2023-05-29T14:21:25;13.40;;;12.90;;
30080;SDS011;16902;50.816;12.828;2023-05-29T14:26:27;13.50;;;13.00;;
30080;SDS011;16902;50.816;12.828;2023-05-29T14:31:29;13.43;;;12.93;;
30080;SDS011;16902;50.816;12.828;2023-05-29T14:36:31;13.00;;;12.50;;
30080;SDS011;16902;50.816;12.828;2023-05-29T14:41:32;13.05;;;12.55;;
30080;SDS011;16902;50.816;12.828;2023-05-29T14:46:37;13.32;;;12.82;;
30080;SDS011;16902;50.816;12.828;2023-05-29T14:51:38;13.57;;;13.07;;
30080;SDS011;16902;50.816;12.828;2023-05-29T14:56:40;13.32;;;12.82;;
30080;SDS011;16902;50.816;12.828;2023-05-29T15:01:42;13.15;;;12.65;;
30080;SDS011;16902;50.816;12.828;2023-05-29T15:06:44;13.15;;;12.65;;
30080;SDS011;16902;50.816;12.828;2023-05-29T15:11:52;13.77;;;13.07;;
30080;SDS011;16902;50.816;12.828;2023-05-29T15:16:54;13.95;;;13.35;;
30080;SDS011;16902;50.816;12.828;2023-05-29T15:21:57;14.07;;;13.50;;
30080;SDS011;16902;50.816;12.828;2023-05-29T15:26:59;14.27;;;13.50;;
30080;SDS011;16902;50.816;12.828;2023-05-29T15:32:01;14.30;;;13.70;;
30080;SDS011;16902;50.816;12.828;2023-05-29T15:37:03;13.45;;;12.85;;
30080;SDS011;16902;50.816;12.828;2023-05-29T15:42:05;13.75;;;13.25;;
30080;SDS011;16902;50.816;12.828;2023-05-29T15:47:11;13.65;;;13.05;;
30080;SDS011;16902;50.816;12.828;2023-05-29T15:52:13;13.80;;;13.30;;
30080;SDS011;16902;50.816;12.828;2023-05-29T15:57:14;14.02;;;13.43;;
30080;SDS011;16902;50.816;12.828;2023-05-29T16:02:16;15.25;;;14.55;;
30080;SDS011;16902;50.816;12.828;2023-05-29T16:07:18;15.07;;;14.38;;
30080;SDS011;16902;50.816;12.828;2023-05-29T16:12:20;15.63;;;14.93;;
30080;SDS011;16902;50.816;12.828;2023-05-29T16:17:23;15.80;;;15.02;;
30080;SDS011;16902;50.816;12.828;2023-05-29T16:22:25;15.32;;;14.63;;
30080;SDS011;16902;50.816;12.828;2023-05-29T16:27:41;15.07;;;14.48;;
30080;SDS011;16902;50.816;12.828;2023-05-29T16:32:43;15.18;;;14.55;;
30080;SDS011;16902;50.816;12.828;2023-05-29T16:37:45;14.75;;;14.15;;
30080;SDS011;16902;50.816;12.828;2023-05-29T16:42:47;14.70;;;14.10;;
30080;SDS011;16902;50.816;12.828;2023-05-29T16:47:48;14.63;;;14.02;;
30080;SDS011;16902;50.816;12.828;2023-05-29T16:52:50;15.07;;;14.48;;
30080;SDS011;16902;50.816;12.828;2023-05-29T16:57:52;15.07;;;14.48;;
30080;SDS011;16902;50.816;12.828;2023-05-29T17:02:54;15.07;;;14.48;;
30080;SDS011;16902;50.816;12.828;2023-05-29T17:07:56;15.55;;;14.85;;
30080;SDS011;16902;50.816;12.828;2023-05-29T17:12:57;23.17;;;21.65;;
30080;SDS011;16902;50.816;12.828;2023-05-29T17:17:59;17.33;;;16.42;;
30080;SDS011;16902;50.816;12.828;2023-05-29T17:23:01;14.93;;;14.32;;
30080;SDS011;16902;50.816;12.828;2023-05-29T17:28:03;17.50;;;16.50;;
30080;SDS011;16902;50.816;12.828;2023-05-29T17:33:04;29.73;;;27.70;;
30080;SDS011;16902;50.816;12.828;2023-05-29T17:38:06;27.90;;;25.85;;
30080;SDS011;16902;50.816;12.828;2023-05-29T17:43:08;28.10;;;26.13;;
30080;SDS011;16902;50.816;12.828;2023-05-29T17:48:10;31.92;;;29.13;;
30080;SDS011;16902;50.816;12.828;2023-05-29T17:53:11;45.95;;;42.38;;
30080;SDS011;16902;50.816;12.828;2023-05-29T17:58:13;20.73;;;19.52;;
30080;SDS011;16902;50.816;12.828;2023-05-29T18:03:15;73.57;;;66.43;;
30080;SDS011;16902;50.816;12.828;2023-05-29T18:08:17;40.58;;;37.38;;
30080;SDS011;16902;50.816;12.828;2023-05-29T18:13:18;16.52;;;15.63;;
30080;SDS011;16902;50.816;12.828;2023-05-29T18:18:20;21.02;;;19.83;;
30080;SDS011;16902;50.816;12.828;2023-05-29T18:23:22;17.30;;;16.35;;
30080;SDS011;16902;50.816;12.828;2023-05-29T18:28:24;18.73;;;17.60;;
30080;SDS011;16902;50.816;12.828;2023-05-29T18:33:26;21.42;;;20.13;;
30080;SDS011;16902;50.816;12.828;2023-05-29T18:38:28;18.95;;;17.95;;
30080;SDS011;16902;50.816;12.828;2023-05-29T18:43:29;17.02;;;16.13;;
30080;SDS011;16902;50.816;12.828;2023-05-29T18:48:31;16.05;;;15.25;;
30080;SDS011;16902;50.816;12.828;2023-05-29T18:53:33;15.20;;;14.50;;
30080;SDS011;16902;50.816;12.828;2023-05-29T18:58:34;14.73;;;14.02;;
30080;SDS011;16902;50.816;12.828;2023-05-29T19:03:36;13.90;;;13.30;;
30080;SDS011;16902;50.816;12.828;2023-05-29T19:08:38;15.00;;;14.30;;
30080;SDS011;16902;50.816;12.828;2023-05-29T19:13:40;14.15;;;13.55;;
30080;SDS011;16902;50.816;12.828;2023-05-29T19:18:43;13.95;;;13.30;;
30080;SDS011;16902;50.816;12.828;2023-05-29T19:23:45;15.00;;;14.25;;
30080;SDS011;16902;50.816;12.828;2023-05-29T19:28:48;15.10;;;14.30;;
30080;SDS011;16902;50.816;12.828;2023-05-29T19:33:51;14.77;;;14.15;;
30080;SDS011;16902;50.816;12.828;2023-05-29T19:38:54;21.23;;;19.85;;
30080;SDS011;16902;50.816;12.828;2023-05-29T19:43:59;16.60;;;15.52;;
30080;SDS011;16902;50.816;12.828;2023-05-29T19:49:05;16.40;;;15.50;;
30080;SDS011;16902;50.816;12.828;2023-05-29T19:54:07;14.13;;;13.52;;
30080;SDS011;16902;50.816;12.828;2023-05-29T19:59:08;16.17;;;15.00;;
30080;SDS011;16902;50.816;12.828;2023-05-29T20:04:10;14.18;;;13.57;;
30080;SDS011;16902;50.816;12.828;2023-05-29T20:09:12;14.32;;;13.57;;
30080;SDS011;16902;50.816;12.828;2023-05-29T20:14:13;13.60;;;13.00;;
30080;SDS011;16902;50.816;12.828;2023-05-29T20:19:15;12.90;;;12.40;;
30080;SDS011;16902;50.816;12.828;2023-05-29T20:24:17;13.05;;;12.55;;
30080;SDS011;16902;50.816;12.828;2023-05-29T20:29:18;13.50;;;12.90;;
30080;SDS011;16902;50.816;12.828;2023-05-29T20:34:20;16.08;;;15.20;;
30080;SDS011;16902;50.816;12.828;2023-05-29T20:39:22;14.52;;;13.82;;
30080;SDS011;16902;50.816;12.828;2023-05-29T20:44:28;16.17;;;15.27;;
30080;SDS011;16902;50.816;12.828;2023-05-29T20:49:30;14.55;;;13.65;;
30080;SDS011;16902;50.816;12.828;2023-05-29T20:54:32;12.80;;;12.25;;
30080;SDS011;16902;50.816;12.828;2023-05-29T20:59:33;13.20;;;12.60;;
30080;SDS011;16902;50.816;12.828;2023-05-29T21:04:35;12.70;;;12.15;;
30080;SDS011;16902;50.816;12.828;2023-05-29T21:09:37;12.57;;;12.07;;
30080;SDS011;16902;50.816;12.828;2023-05-29T21:14:39;12.70;;;12.10;;
30080;SDS011;16902;50.816;12.828;2023-05-29T21:19:41;13.00;;;12.50;;
30080;SDS011;16902;50.816;12.828;2023-05-29T21:24:43;12.68;;;12.07;;
30080;SDS011;16902;50.816;12.828;2023-05-29T21:29:45;12.30;;;11.80;;
30080;SDS011;16902;50.816;12.828;2023-05-29T21:34:48;12.65;;;12.02;;
30080;SDS011;16902;50.816;12.828;2023-05-29T21:39:50;12.15;;;11.65;;
30080;SDS011;16902;50.816;12.828;2023-05-29T21:44:52;12.23;;;11.65;;
30080;SDS011;16902;50.816;12.828;2023-05-29T21:49:54;11.35;;;10.95;;
30080;SDS011;16902;50.816;12.828;2023-05-29T21:54:55;11.63;;;11.20;;
30080;SDS011;16902;50.816;12.828;2023-05-29T21:59:57;11.50;;;11.00;;
30080;SDS011;16902;50.816;12.828;2023-05-29T22:04:58;11.30;;;10.80;;
30080;SDS011;16902;50.816;12.828;2023-05-29T22:10:00;11.85;;;11.32;;
30080;SDS011;16902;50.816;12.828;2023-05-29T22:15:03;11.70;;;11.30;;
30080;SDS011;16902;50.816;12.828;2023-05-29T22:20:05;12.00;;;11.50;;
30080;SDS011;16902;50.816;12.828;2023-05-29T22:25:08;11.52;;;11.02;;
30080;SDS011;16902;50.816;12.828;2023-05-29T22:30:13;11.18;;;10.68;;
30080;SDS011;16902;50.816;12.828;2023-05-29T22:35:16;10.73;;;10.23;;
30080;SDS011;16902;50.816;12.828;2023-05-29T22:40:17;11.13;;;10.73;;
30080;SDS011;16902;50.816;12.828;2023-05-29T22:45:19;11.05;;;10.55;;
30080;SDS011;16902;50.816;12.828;2023-05-29T22:50:21;10.98;;;10.48;;
30080;SDS011;16902;50.816;12.828;2023-05-29T22:55:23;10.93;;;10.52;;
30080;SDS011;16902;50.816;12.828;2023-05-29T23:00:26;10.18;;;9.80;;
30080;SDS011;16902;50.816;12.828;2023-05-29T23:05:28;10.55;;;10.15;;
30080;SDS011;16902;50.816;12.828;2023-05-29T23:10:34;9.98;;;9.57;;
30080;SDS011;16902;50.816;12.828;2023-05-29T23:15:37;10.80;;;10.30;;
30080;SDS011;16902;50.816;12.828;2023-05-29T23:20:39;10.13;;;9.73;;
30080;SDS011;16902;50.816;12.828;2023-05-29T23:25:42;10.73;;;10.15;;
30080;SDS011;16902;50.816;12.828;2023-05-29T23:30:45;10.55;;;10.05;;
30080;SDS011;16902;50.816;12.828;2023-05-29T23:35:47;10.63;;;10.23;;
30080;SDS011;16902;50.816;12.828;2023-05-29T23:40:48;10.52;;;10.13;;
30080;SDS011;16902;50.816;12.828;2023-05-29T23:45:50;9.18;;;8.82;;
30080;SDS011;16902;50.816;12.828;2023-05-29T23:50:52;10.18;;;9.77;;
30080;SDS011;16902;50.816;12.828;2023-05-29T23:55:54;9.80;;;9.43;;
